»·PEaware :: DCM205 KSFO-KPSP

DCM205 :: KSFO-KPSP

FLIGHT INFORMATION

Flight Status: Arrived
Operator:
DotCom
More flights by this operator :: More flights under this callsign
Pilot: Chris S. (2433)
Aircraft: BOEING 737-700
(B737)
More flights by this aircraft type
Origin: KSFO San Francisco Intl
United States
Destination: KPSP Palm Springs Intl
United States
More flights between these airports :: More routes between these airports
Route: SSTIK4 LOSHN CLASN SIZLR3
File this flight plan on PilotEdge
Remarks:
Altitude:
(Current/Filed)
39,000ft
Speed:
(Current/Filed)
480kts
Departed: 26-Jun-20 04:13 PM
Arrived: 26-Jun-20 05:19 PM
Distance/Time
Traveled:
365nm/1:06
Distance/Time
To Go:
Arrived

Flight Plot

Page will automatically refresh every two minutes.

Flight plan parsing failed; only flown route is shown


Map Options




Map Legend


Flown Route
Filed Route
Departure Airport
Arrival Airport
Navaid (VOR, NDB)
Fix

Horizontal Profiles

Position Reports

Time Latitude Longitude Heading Altitude Ground
Speed
26-Jun-20 15:59 37.612835 -122.392187 335 26ft 0kts
26-Jun-20 16:00 37.612835 -122.392187 335 26ft 0kts
26-Jun-20 16:00 37.612835 -122.392187 335 26ft 0kts
26-Jun-20 16:02 37.612835 -122.392187 335 26ft 0kts
26-Jun-20 16:02 37.612835 -122.392187 335 26ft 0kts
26-Jun-20 16:03 37.612835 -122.392187 335 26ft 0kts
26-Jun-20 16:05 37.612835 -122.392187 335 26ft 0kts
26-Jun-20 16:05 37.612835 -122.392187 335 26ft 0kts
26-Jun-20 16:06 37.613015 -122.392178 24 26ft 1kts
26-Jun-20 16:07 37.612821 -122.391723 185 26ft 8kts
26-Jun-20 16:08 37.610285 -122.389199 47 26ft 0kts
26-Jun-20 16:09 37.611273 -122.386245 104 26ft 13kts
26-Jun-20 16:10 37.610177 -122.383995 195 26ft 3kts
26-Jun-20 16:11 37.608820 -122.382358 28 26ft 17kts
26-Jun-20 16:12 37.643792 -122.359506 11 2150ft 196kts
26-Jun-20 16:13 37.701136 -122.381582 300 4488ft 253kts
26-Jun-20 16:14 37.673688 -122.453226 200 8112ft 272kts
26-Jun-20 16:15 37.593405 -122.463580 182 10690ft 314kts
26-Jun-20 16:16 37.499162 -122.465407 159 13624ft 355kts
26-Jun-20 16:17 37.425345 -122.380338 126 16894ft 375kts
26-Jun-20 16:18 37.358834 -122.273171 127 18899ft 417kts
26-Jun-20 16:19 37.280560 -122.151599 127 21536ft 448kts
26-Jun-20 16:20 37.200745 -122.027579 128 24324ft 467kts
26-Jun-20 16:21 37.117277 -121.899258 127 27082ft 480kts
26-Jun-20 16:22 37.032707 -121.769929 128 29271ft 493kts
26-Jun-20 16:23 36.944506 -121.635597 128 31054ft 505kts
26-Jun-20 16:24 36.854252 -121.498694 128 32764ft 509kts
26-Jun-20 16:25 36.764695 -121.363395 128 34547ft 504kts
26-Jun-20 16:26 36.675539 -121.228914 128 35897ft 503kts
26-Jun-20 16:27 36.587269 -121.096564 128 37078ft 502kts
26-Jun-20 16:28 36.497791 -120.963308 128 38132ft 501kts
26-Jun-20 16:29 36.408622 -120.830179 128 38885ft 500kts
26-Jun-20 16:30 36.319605 -120.697725 128 38883ft 500kts
26-Jun-20 16:31 36.230522 -120.564873 127 38872ft 499kts
26-Jun-20 16:32 36.141622 -120.432648 127 38855ft 500kts
26-Jun-20 16:33 36.052651 -120.301232 126 38846ft 499kts
26-Jun-20 16:34 35.963247 -120.169419 127 38845ft 500kts
26-Jun-20 16:35 35.873624 -120.038469 127 38843ft 500kts
26-Jun-20 16:36 35.805372 -119.891144 110 38837ft 493kts
26-Jun-20 16:37 35.749007 -119.737260 111 38833ft 494kts
26-Jun-20 16:38 35.690537 -119.583195 111 38828ft 496kts
26-Jun-20 16:39 35.617864 -119.442946 129 38829ft 504kts
26-Jun-20 16:40 35.523325 -119.318008 129 38826ft 508kts
26-Jun-20 16:41 35.427913 -119.189428 130 38830ft 510kts
26-Jun-20 16:42 35.331867 -119.061016 130 38724ft 505kts
26-Jun-20 16:43 35.239019 -118.937961 130 37254ft 482kts
26-Jun-20 16:44 35.148841 -118.819130 129 35481ft 468kts
26-Jun-20 16:45 35.061998 -118.704632 129 33795ft 452kts
26-Jun-20 16:46 34.977078 -118.592403 129 31923ft 442kts
26-Jun-20 16:47 34.894692 -118.484600 129 30239ft 429kts
26-Jun-20 16:48 34.814138 -118.379746 129 28518ft 419kts
26-Jun-20 16:49 34.739878 -118.273493 123 26795ft 406kts
26-Jun-20 16:50 34.671025 -118.166091 124 25132ft 396kts
26-Jun-20 16:51 34.603558 -118.062198 124 23529ft 387kts
26-Jun-20 16:52 34.549128 -117.952800 111 22302ft 376kts
26-Jun-20 16:53 34.503569 -117.839454 113 21287ft 369kts
26-Jun-20 16:54 34.457983 -117.728773 113 20307ft 364kts
26-Jun-20 16:55 34.413683 -117.619787 113 19335ft 358kts
26-Jun-20 16:56 34.369709 -117.512599 113 18391ft 352kts
26-Jun-20 16:57 34.326369 -117.407405 113 17465ft 346kts
26-Jun-20 16:58 34.282582 -117.304719 117 16536ft 340kts
26-Jun-20 16:59 34.236271 -117.206118 117 16024ft 336kts
26-Jun-20 17:00 34.190275 -117.108047 117 16043ft 335kts
26-Jun-20 17:01 34.144144 -117.010264 118 16109ft 334kts
26-Jun-20 17:02 34.098654 -116.913404 118 15939ft 336kts
26-Jun-20 17:03 34.053485 -116.816873 118 14815ft 327kts
26-Jun-20 17:04 34.017511 -116.717080 105 13483ft 331kts
26-Jun-20 17:05 33.990496 -116.612904 107 12041ft 312kts
26-Jun-20 17:06 33.956282 -116.526856 132 10908ft 263kts
26-Jun-20 17:07 33.904809 -116.469272 137 9595ft 236kts
26-Jun-20 17:08 33.861294 -116.411558 121 8602ft 235kts
26-Jun-20 17:09 33.832582 -116.341471 117 7618ft 232kts
26-Jun-20 17:10 33.804037 -116.276800 132 6684ft 212kts
26-Jun-20 17:11 33.754489 -116.284514 216 5536ft 187kts
26-Jun-20 17:12 33.715071 -116.325308 222 4754ft 185kts
26-Jun-20 17:13 33.688260 -116.372372 289 3798ft 186kts
26-Jun-20 17:14 33.724383 -116.410478 318 2898ft 154kts
26-Jun-20 17:15 33.757370 -116.440960 318 2107ft 147kts
26-Jun-20 17:16 33.788999 -116.471582 320 1314ft 143kts
26-Jun-20 17:17 33.821019 -116.500048 322 501ft 141kts
26-Jun-20 17:18 33.833367 -116.511920 235 490ft 13kts
26-Jun-20 17:19 33.830567 -116.510607 143 490ft 23kts
26-Jun-20 17:20 33.825745 -116.506203 142 490ft 20kts
26-Jun-20 17:21 33.821759 -116.506011 197 490ft 8kts
26-Jun-20 17:22 33.821030 -116.506368 214 490ft 0kts

Navigation Log

Ident Type
Flight plan parsing failed, navigation log unavailable